SAS508 KMEM-KPNS
Flight info
| Callsign | SAS508 |
|---|---|
| Flight time | 0h 55m |
| Altitude | 39000 |
| Route | PIEPE6 IBUFY SJI |
| Aircraft | A359/H-SDE2E3GHIJ3J4J5LM1ORWXY/LB1D1 |
Departure
| Time | 2026-04-24 21:01 |
|---|---|
| Airport | Memphis International Airport (KMEM) |
Arrival
| Time | 2026-04-24 21:56 |
|---|---|
| Airport | Pensacola International Airport (KPNS) |
| Time | Latitude | Longitude | Altitude | Speed | Heading |
|---|---|---|---|---|---|
| 2026-04-24 20:12 | 35.04165 | -89.98353 | 332 ft | 0 kts | 134° |
| 2026-04-24 20:52 | 35.04173 | -89.98362 | 337 ft | 4 kts | 122° |
| 2026-04-24 20:53 | 35.04177 | -89.98383 | 337 ft | 4 kts | 42° |
| 2026-04-24 20:53 | 35.04155 | -89.98401 | 333 ft | 4 kts | 38° |
| 2026-04-24 20:53 | 35.04151 | -89.98406 | 337 ft | 0 kts | 44° |
| 2026-04-24 20:56 | 35.04152 | -89.98404 | 337 ft | 2 kts | 44° |
| 2026-04-24 20:56 | 35.04180 | -89.98393 | 333 ft | 5 kts | 350° |
| 2026-04-24 20:56 | 35.04207 | -89.98446 | 333 ft | 12 kts | 296° |
| 2026-04-24 20:56 | 35.04282 | -89.98501 | 334 ft | 15 kts | 358° |
| 2026-04-24 20:57 | 35.04397 | -89.98503 | 334 ft | 18 kts | 359° |
| 2026-04-24 20:57 | 35.04528 | -89.98505 | 337 ft | 18 kts | 358° |
| 2026-04-24 20:57 | 35.04646 | -89.98508 | 332 ft | 18 kts | 358° |
| 2026-04-24 20:57 | 35.04777 | -89.98512 | 333 ft | 20 kts | 359° |
| 2026-04-24 20:58 | 35.04886 | -89.98515 | 334 ft | 13 kts | 359° |
| 2026-04-24 20:58 | 35.04934 | -89.98566 | 333 ft | 9 kts | 276° |
| 2026-04-24 20:58 | 35.04934 | -89.98604 | 338 ft | 0 kts | 269° |
| 2026-04-24 20:59 | 35.04934 | -89.98616 | 333 ft | 5 kts | 269° |
| 2026-04-24 20:59 | 35.04933 | -89.98673 | 339 ft | 8 kts | 269° |
| 2026-04-24 21:00 | 35.04913 | -89.98735 | 336 ft | 9 kts | 211° |
| 2026-04-24 21:00 | 35.04833 | -89.98743 | 339 ft | 26 kts | 178° |
| 2026-04-24 21:00 | 35.04374 | -89.98729 | 335 ft | 104 kts | 179° |
| 2026-04-24 21:00 | 35.03419 | -89.98705 | 371 ft | 164 kts | 178° |
| 2026-04-24 21:01 | 35.02268 | -89.98673 | 1096 ft | 165 kts | 177° |
| 2026-04-24 21:01 | 35.01109 | -89.98659 | 1868 ft | 174 kts | 179° |
| 2026-04-24 21:01 | 34.99791 | -89.98668 | 2232 ft | 204 kts | 179° |
| 2026-04-24 21:01 | 34.98254 | -89.98682 | 2574 ft | 236 kts | 180° |
| 2026-04-24 21:02 | 34.96556 | -89.98701 | 3276 ft | 248 kts | 182° |
| 2026-04-24 21:02 | 34.94810 | -89.98729 | 4152 ft | 254 kts | 183° |
| 2026-04-24 21:02 | 34.93022 | -89.98755 | 4996 ft | 259 kts | 183° |
| 2026-04-24 21:02 | 34.91204 | -89.98780 | 5892 ft | 264 kts | 183° |
| 2026-04-24 21:03 | 34.89358 | -89.98802 | 6843 ft | 267 kts | 183° |
| 2026-04-24 21:03 | 34.87491 | -89.98825 | 7842 ft | 270 kts | 183° |
| 2026-04-24 21:03 | 34.85605 | -89.98848 | 8866 ft | 272 kts | 183° |
| 2026-04-24 21:03 | 34.83700 | -89.98874 | 9823 ft | 276 kts | 184° |
| 2026-04-24 21:04 | 34.81739 | -89.98910 | 10524 ft | 291 kts | 183° |
| 2026-04-24 21:04 | 34.79665 | -89.98932 | 10890 ft | 314 kts | 182° |
| 2026-04-24 21:04 | 34.77394 | -89.98958 | 11516 ft | 327 kts | 183° |
| 2026-04-24 21:04 | 34.75095 | -89.98989 | 12328 ft | 333 kts | 182° |
| 2026-04-24 21:05 | 34.72790 | -89.99017 | 13162 ft | 338 kts | 182° |
| 2026-04-24 21:05 | 34.70417 | -89.99132 | 13957 ft | 343 kts | 189° |
| 2026-04-24 21:05 | 34.68091 | -89.99793 | 14748 ft | 344 kts | 200° |
| 2026-04-24 21:05 | 34.65823 | -90.00772 | 15502 ft | 349 kts | 202° |
| 2026-04-24 21:06 | 34.63537 | -90.01803 | 16316 ft | 352 kts | 203° |
| 2026-04-24 21:06 | 34.61230 | -90.02839 | 17100 ft | 356 kts | 203° |
| 2026-04-24 21:06 | 34.58894 | -90.03885 | 17843 ft | 360 kts | 203° |
| 2026-04-24 21:06 | 34.56527 | -90.04940 | 18588 ft | 364 kts | 204° |
| 2026-04-24 21:07 | 34.54132 | -90.06005 | 19286 ft | 369 kts | 204° |
| 2026-04-24 21:07 | 34.51696 | -90.07086 | 19962 ft | 375 kts | 203° |
| 2026-04-24 21:07 | 34.49226 | -90.08179 | 20635 ft | 381 kts | 204° |
| 2026-04-24 21:07 | 34.46690 | -90.09176 | 21312 ft | 389 kts | 197° |
| 2026-04-24 21:08 | 34.43989 | -90.09722 | 21941 ft | 397 kts | 191° |
| 2026-04-24 21:08 | 34.41224 | -90.10102 | 22555 ft | 404 kts | 190° |
| 2026-04-24 21:08 | 34.38413 | -90.10470 | 23171 ft | 409 kts | 190° |
| 2026-04-24 21:08 | 34.35565 | -90.10853 | 23780 ft | 414 kts | 191° |
| 2026-04-24 21:09 | 34.32685 | -90.11243 | 24360 ft | 419 kts | 191° |
| 2026-04-24 21:09 | 34.29762 | -90.11636 | 24928 ft | 424 kts | 190° |
| 2026-04-24 21:09 | 34.26815 | -90.12034 | 25502 ft | 429 kts | 190° |
| 2026-04-24 21:09 | 34.23836 | -90.12438 | 26071 ft | 432 kts | 189° |
| 2026-04-24 21:10 | 34.20830 | -90.12847 | 26613 ft | 437 kts | 189° |
| 2026-04-24 21:10 | 34.17796 | -90.13260 | 27143 ft | 441 kts | 189° |
| 2026-04-24 21:10 | 34.14732 | -90.13677 | 27665 ft | 445 kts | 189° |
| 2026-04-24 21:10 | 34.11637 | -90.14052 | 28179 ft | 450 kts | 185° |
| 2026-04-24 21:11 | 34.08496 | -90.13780 | 28663 ft | 458 kts | 169° |
| 2026-04-24 21:11 | 34.05491 | -90.12617 | 29169 ft | 462 kts | 160° |
| 2026-04-24 21:11 | 34.02517 | -90.11109 | 29677 ft | 466 kts | 156° |
| 2026-04-24 21:11 | 33.99567 | -90.09452 | 30169 ft | 469 kts | 155° |
| 2026-04-24 21:12 | 33.96626 | -90.07744 | 30654 ft | 471 kts | 154° |
| 2026-04-24 21:12 | 33.94630 | -90.06584 | 30968 ft | 472 kts | 155° |
| 2026-04-24 21:12 | 33.90686 | -90.04324 | 31563 ft | 475 kts | 155° |
| 2026-04-24 21:12 | 33.87688 | -90.02639 | 32023 ft | 477 kts | 155° |
| 2026-04-24 21:13 | 33.84669 | -90.00963 | 32445 ft | 479 kts | 155° |
| 2026-04-24 21:13 | 33.81635 | -89.99292 | 32852 ft | 481 kts | 155° |
| 2026-04-24 21:13 | 33.78589 | -89.97621 | 33263 ft | 483 kts | 155° |
| 2026-04-24 21:13 | 33.75520 | -89.95942 | 33640 ft | 485 kts | 155° |
| 2026-04-24 21:14 | 33.72450 | -89.94263 | 34019 ft | 486 kts | 155° |
| 2026-04-24 21:14 | 33.69406 | -89.92598 | 34360 ft | 488 kts | 155° |
| 2026-04-24 21:14 | 33.66306 | -89.90903 | 34784 ft | 487 kts | 155° |
| 2026-04-24 21:14 | 33.63227 | -89.89220 | 35213 ft | 487 kts | 156° |
| 2026-04-24 21:15 | 33.60147 | -89.87537 | 35604 ft | 486 kts | 156° |
| 2026-04-24 21:15 | 33.57086 | -89.85866 | 36161 ft | 481 kts | 157° |
| 2026-04-24 21:15 | 33.54062 | -89.84216 | 36796 ft | 474 kts | 157° |
| 2026-04-24 21:15 | 33.51081 | -89.82589 | 37412 ft | 466 kts | 157° |
| 2026-04-24 21:16 | 33.48150 | -89.80993 | 37946 ft | 461 kts | 157° |
| 2026-04-24 21:16 | 33.45237 | -89.79408 | 38289 ft | 460 kts | 157° |
| 2026-04-24 21:16 | 33.42328 | -89.77827 | 38597 ft | 458 kts | 157° |
| 2026-04-24 21:16 | 33.39424 | -89.76251 | 38835 ft | 459 kts | 157° |
| 2026-04-24 21:17 | 33.33654 | -89.73120 | 38881 ft | 453 kts | 158° |
| 2026-04-24 21:17 | 33.28879 | -89.70530 | 38879 ft | 454 kts | 158° |
| 2026-04-24 21:18 | 33.22183 | -89.66905 | 38878 ft | 456 kts | 158° |
| 2026-04-24 21:18 | 33.17335 | -89.64285 | 38886 ft | 457 kts | 158° |
| 2026-04-24 21:19 | 33.11524 | -89.61146 | 38889 ft | 459 kts | 158° |
| 2026-04-24 21:19 | 33.05696 | -89.58005 | 38887 ft | 461 kts | 158° |
| 2026-04-24 21:20 | 32.96955 | -89.53304 | 38887 ft | 462 kts | 158° |
| 2026-04-24 21:21 | 32.91077 | -89.50146 | 38887 ft | 464 kts | 158° |
| 2026-04-24 21:21 | 32.85179 | -89.46980 | 38887 ft | 466 kts | 158° |
| 2026-04-24 21:22 | 32.79220 | -89.43788 | 38881 ft | 467 kts | 158° |
| 2026-04-24 21:22 | 32.73328 | -89.40638 | 38877 ft | 468 kts | 158° |
| 2026-04-24 21:23 | 32.67378 | -89.37464 | 38880 ft | 469 kts | 158° |
| 2026-04-24 21:23 | 32.61419 | -89.34287 | 38880 ft | 470 kts | 158° |
| 2026-04-24 21:24 | 32.55444 | -89.31105 | 38880 ft | 471 kts | 158° |
| 2026-04-24 21:24 | 32.49470 | -89.27930 | 38878 ft | 471 kts | 159° |
| 2026-04-24 21:25 | 32.43479 | -89.24751 | 38880 ft | 472 kts | 159° |
| 2026-04-24 21:25 | 32.37490 | -89.21577 | 38871 ft | 472 kts | 159° |
| 2026-04-24 21:26 | 32.31494 | -89.18403 | 38871 ft | 472 kts | 159° |
| 2026-04-24 21:26 | 32.25495 | -89.15232 | 38880 ft | 472 kts | 159° |
| 2026-04-24 21:27 | 32.19485 | -89.12061 | 38879 ft | 473 kts | 159° |
| 2026-04-24 21:27 | 32.13480 | -89.08896 | 38879 ft | 473 kts | 159° |
| 2026-04-24 21:28 | 32.07477 | -89.05737 | 38878 ft | 472 kts | 159° |
| 2026-04-24 21:28 | 32.01476 | -89.02583 | 38888 ft | 472 kts | 159° |
| 2026-04-24 21:29 | 31.95478 | -88.99437 | 38889 ft | 473 kts | 159° |
| 2026-04-24 21:29 | 31.89438 | -88.96279 | 38878 ft | 480 kts | 159° |
| 2026-04-24 21:30 | 31.83318 | -88.93076 | 38586 ft | 481 kts | 159° |
| 2026-04-24 21:30 | 31.80292 | -88.91491 | 38380 ft | 471 kts | 159° |
| 2026-04-24 21:30 | 31.77305 | -88.89926 | 37769 ft | 471 kts | 159° |
| 2026-04-24 21:30 | 31.74347 | -88.88380 | 37110 ft | 472 kts | 159° |
| 2026-04-24 21:31 | 31.71343 | -88.86815 | 36435 ft | 473 kts | 159° |
| 2026-04-24 21:31 | 31.68335 | -88.85249 | 35758 ft | 473 kts | 158° |
| 2026-04-24 21:31 | 31.65324 | -88.83683 | 35131 ft | 473 kts | 158° |
| 2026-04-24 21:31 | 31.62327 | -88.82125 | 34629 ft | 469 kts | 158° |
| 2026-04-24 21:32 | 31.59351 | -88.80578 | 34109 ft | 467 kts | 158° |
| 2026-04-24 21:32 | 31.56393 | -88.79041 | 33590 ft | 464 kts | 158° |
| 2026-04-24 21:32 | 31.53443 | -88.77511 | 33065 ft | 462 kts | 158° |
| 2026-04-24 21:32 | 31.50642 | -88.76057 | 32570 ft | 459 kts | 158° |
| 2026-04-24 21:33 | 31.47731 | -88.74548 | 32050 ft | 456 kts | 158° |
| 2026-04-24 21:33 | 31.44835 | -88.73047 | 31545 ft | 453 kts | 158° |
| 2026-04-24 21:33 | 31.41965 | -88.71559 | 31039 ft | 451 kts | 158° |
| 2026-04-24 21:33 | 31.39105 | -88.70077 | 30540 ft | 448 kts | 158° |
| 2026-04-24 21:34 | 31.36260 | -88.68604 | 30045 ft | 445 kts | 158° |
| 2026-04-24 21:34 | 31.33442 | -88.67147 | 29536 ft | 442 kts | 158° |
| 2026-04-24 21:34 | 31.30631 | -88.65695 | 29038 ft | 440 kts | 158° |
| 2026-04-24 21:34 | 31.27844 | -88.64256 | 28549 ft | 437 kts | 159° |
| 2026-04-24 21:35 | 31.25067 | -88.62824 | 28054 ft | 434 kts | 159° |
| 2026-04-24 21:35 | 31.22309 | -88.61404 | 27566 ft | 432 kts | 159° |
| 2026-04-24 21:35 | 31.19566 | -88.59991 | 27069 ft | 430 kts | 159° |
| 2026-04-24 21:35 | 31.16835 | -88.58585 | 26573 ft | 427 kts | 159° |
| 2026-04-24 21:36 | 31.14125 | -88.57190 | 26079 ft | 425 kts | 159° |
| 2026-04-24 21:36 | 31.11431 | -88.55804 | 25585 ft | 423 kts | 159° |
| 2026-04-24 21:36 | 31.08743 | -88.54422 | 25086 ft | 420 kts | 159° |
| 2026-04-24 21:36 | 31.06080 | -88.53053 | 24588 ft | 417 kts | 159° |
| 2026-04-24 21:37 | 31.03426 | -88.51690 | 24103 ft | 415 kts | 159° |
| 2026-04-24 21:37 | 31.00792 | -88.50340 | 23590 ft | 413 kts | 159° |
| 2026-04-24 21:37 | 30.98169 | -88.48996 | 23093 ft | 410 kts | 159° |
| 2026-04-24 21:37 | 30.95568 | -88.47664 | 22596 ft | 408 kts | 159° |
| 2026-04-24 21:38 | 30.92979 | -88.46338 | 22099 ft | 405 kts | 159° |
| 2026-04-24 21:38 | 30.90411 | -88.45025 | 21599 ft | 402 kts | 159° |
| 2026-04-24 21:38 | 30.87856 | -88.43718 | 21102 ft | 399 kts | 159° |
| 2026-04-24 21:38 | 30.85322 | -88.42424 | 20609 ft | 397 kts | 159° |
| 2026-04-24 21:39 | 30.82805 | -88.41139 | 20109 ft | 393 kts | 159° |
| 2026-04-24 21:39 | 30.80309 | -88.39865 | 19622 ft | 391 kts | 159° |
| 2026-04-24 21:39 | 30.77865 | -88.38613 | 19137 ft | 388 kts | 159° |
| 2026-04-24 21:39 | 30.75538 | -88.37040 | 18602 ft | 389 kts | 144° |
| 2026-04-24 21:40 | 30.73659 | -88.34793 | 18058 ft | 390 kts | 125° |
| 2026-04-24 21:40 | 30.72540 | -88.31955 | 17551 ft | 386 kts | 103° |
| 2026-04-24 21:40 | 30.72175 | -88.28889 | 17109 ft | 381 kts | 93° |
| 2026-04-24 21:40 | 30.71999 | -88.25837 | 16654 ft | 377 kts | 92° |
| 2026-04-24 21:41 | 30.71840 | -88.22811 | 16181 ft | 373 kts | 92° |
| 2026-04-24 21:41 | 30.71680 | -88.19824 | 15731 ft | 369 kts | 92° |
| 2026-04-24 21:41 | 30.71516 | -88.16863 | 15277 ft | 365 kts | 93° |
| 2026-04-24 21:41 | 30.71352 | -88.13939 | 14825 ft | 361 kts | 93° |
| 2026-04-24 21:42 | 30.71188 | -88.11049 | 14390 ft | 356 kts | 93° |
| 2026-04-24 21:42 | 30.71024 | -88.08193 | 13949 ft | 352 kts | 93° |
| 2026-04-24 21:42 | 30.70860 | -88.05369 | 13507 ft | 348 kts | 93° |
| 2026-04-24 21:42 | 30.70699 | -88.02586 | 13073 ft | 343 kts | 93° |
| 2026-04-24 21:43 | 30.70539 | -87.99836 | 12649 ft | 339 kts | 93° |
| 2026-04-24 21:43 | 30.70380 | -87.97119 | 12216 ft | 335 kts | 94° |
| 2026-04-24 21:43 | 30.70222 | -87.94434 | 11790 ft | 331 kts | 94° |
| 2026-04-24 21:43 | 30.70065 | -87.91780 | 11373 ft | 328 kts | 94° |
| 2026-04-24 21:44 | 30.69910 | -87.89146 | 10955 ft | 325 kts | 94° |
| 2026-04-24 21:44 | 30.69754 | -87.86536 | 10534 ft | 323 kts | 94° |
| 2026-04-24 21:44 | 30.69601 | -87.83963 | 10316 ft | 313 kts | 94° |
| 2026-04-24 21:44 | 30.69453 | -87.81498 | 10193 ft | 299 kts | 94° |
| 2026-04-24 21:45 | 30.69314 | -87.79168 | 10092 ft | 286 kts | 94° |
| 2026-04-24 21:45 | 30.69177 | -87.76883 | 9828 ft | 283 kts | 94° |
| 2026-04-24 21:45 | 30.69035 | -87.74540 | 9612 ft | 284 kts | 95° |
| 2026-04-24 21:45 | 30.68902 | -87.72326 | 9458 ft | 274 kts | 95° |
| 2026-04-24 21:46 | 30.68768 | -87.70115 | 9167 ft | 269 kts | 95° |
| 2026-04-24 21:46 | 30.68637 | -87.67951 | 8815 ft | 267 kts | 95° |
| 2026-04-24 21:46 | 30.68507 | -87.65832 | 8464 ft | 266 kts | 95° |
| 2026-04-24 21:46 | 30.68375 | -87.63690 | 8122 ft | 265 kts | 95° |
| 2026-04-24 21:47 | 30.68245 | -87.61566 | 7766 ft | 263 kts | 95° |
| 2026-04-24 21:47 | 30.68158 | -87.60138 | 7545 ft | 262 kts | 95° |
| 2026-04-24 21:47 | 30.67988 | -87.57367 | 7116 ft | 258 kts | 95° |
| 2026-04-24 21:47 | 30.67860 | -87.55298 | 6812 ft | 255 kts | 95° |
| 2026-04-24 21:48 | 30.67734 | -87.53258 | 6526 ft | 252 kts | 95° |
| 2026-04-24 21:48 | 30.67608 | -87.51238 | 6237 ft | 251 kts | 96° |
| 2026-04-24 21:48 | 30.67481 | -87.49219 | 5935 ft | 250 kts | 96° |
| 2026-04-24 21:48 | 30.67355 | -87.47206 | 5649 ft | 249 kts | 96° |
| 2026-04-24 21:49 | 30.67229 | -87.45204 | 5362 ft | 248 kts | 95° |
| 2026-04-24 21:49 | 30.67104 | -87.43214 | 5080 ft | 247 kts | 95° |
| 2026-04-24 21:49 | 30.66981 | -87.41239 | 4829 ft | 241 kts | 95° |
| 2026-04-24 21:49 | 30.66859 | -87.39312 | 4527 ft | 238 kts | 96° |
| 2026-04-24 21:50 | 30.66737 | -87.37391 | 4236 ft | 240 kts | 96° |
| 2026-04-24 21:50 | 30.66614 | -87.35446 | 3945 ft | 241 kts | 95° |
| 2026-04-24 21:50 | 30.66491 | -87.33502 | 3649 ft | 241 kts | 96° |
| 2026-04-24 21:50 | 30.66367 | -87.31569 | 3368 ft | 239 kts | 96° |
| 2026-04-24 21:51 | 30.66244 | -87.29653 | 3090 ft | 237 kts | 96° |
| 2026-04-24 21:51 | 30.66126 | -87.27788 | 2982 ft | 227 kts | 96° |
| 2026-04-24 21:51 | 30.65965 | -87.25976 | 2888 ft | 226 kts | 103° |
| 2026-04-24 21:51 | 30.65341 | -87.24345 | 2796 ft | 221 kts | 131° |
| 2026-04-24 21:52 | 30.64133 | -87.23321 | 2705 ft | 212 kts | 160° |
| 2026-04-24 21:52 | 30.62761 | -87.22862 | 2628 ft | 198 kts | 168° |
| 2026-04-24 21:52 | 30.61461 | -87.22534 | 2546 ft | 185 kts | 168° |
| 2026-04-24 21:52 | 30.60223 | -87.22224 | 2461 ft | 182 kts | 168° |
| 2026-04-24 21:53 | 30.58991 | -87.21911 | 2271 ft | 181 kts | 168° |
| 2026-04-24 21:53 | 30.57769 | -87.21591 | 2025 ft | 179 kts | 167° |
| 2026-04-24 21:53 | 30.56559 | -87.21270 | 1783 ft | 178 kts | 167° |
| 2026-04-24 21:53 | 30.55351 | -87.20956 | 1706 ft | 178 kts | 167° |
| 2026-04-24 21:54 | 30.54154 | -87.20638 | 1691 ft | 171 kts | 167° |
| 2026-04-24 21:54 | 30.53030 | -87.20339 | 1440 ft | 161 kts | 167° |
| 2026-04-24 21:54 | 30.51975 | -87.20053 | 1217 ft | 152 kts | 166° |
| 2026-04-24 21:54 | 30.50943 | -87.19782 | 810 ft | 152 kts | 167° |
| 2026-04-24 21:55 | 30.49933 | -87.19510 | 511 ft | 146 kts | 166° |
| 2026-04-24 21:55 | 30.48970 | -87.19244 | 292 ft | 139 kts | 166° |
| 2026-04-24 21:55 | 30.48063 | -87.18998 | 141 ft | 128 kts | 166° |
| 2026-04-24 21:55 | 30.47332 | -87.18809 | 134 ft | 84 kts | 167° |
| 2026-04-24 21:56 | 30.46920 | -87.18701 | 136 ft | 39 kts | 167° |
| 2026-04-24 21:56 | 30.46759 | -87.18657 | 127 ft | 14 kts | 166° |
| 2026-04-24 21:56 | 30.46695 | -87.18674 | 131 ft | 8 kts | 234° |
| 2026-04-24 21:56 | 30.46669 | -87.18745 | 136 ft | 10 kts | 252° |
| 2026-04-24 21:57 | 30.46692 | -87.18794 | 136 ft | 8 kts | 321° |
| 2026-04-24 21:57 | 30.46752 | -87.18816 | 136 ft | 11 kts | 346° |
| 2026-04-24 21:57 | 30.46837 | -87.18839 | 136 ft | 14 kts | 347° |
| 2026-04-24 21:57 | 30.46946 | -87.18867 | 135 ft | 17 kts | 347° |
| 2026-04-24 21:58 | 30.47072 | -87.18900 | 135 ft | 19 kts | 347° |
| 2026-04-24 21:58 | 30.47200 | -87.18932 | 134 ft | 17 kts | 348° |
| 2026-04-24 21:58 | 30.47316 | -87.18962 | 134 ft | 15 kts | 347° |
| 2026-04-24 21:58 | 30.47375 | -87.19019 | 135 ft | 10 kts | 278° |
| 2026-04-24 21:59 | 30.47362 | -87.19102 | 129 ft | 11 kts | 259° |
| 2026-04-24 21:59 | 30.47346 | -87.19201 | 135 ft | 14 kts | 259° |
| 2026-04-24 21:59 | 30.47327 | -87.19296 | 135 ft | 8 kts | 252° |
| 2026-04-24 21:59 | 30.47309 | -87.19372 | 127 ft | 11 kts | 256° |
| 2026-04-24 22:00 | 30.47289 | -87.19469 | 135 ft | 11 kts | 256° |
| 2026-04-24 22:00 | 30.47290 | -87.19521 | 129 ft | 4 kts | 304° |
| 2026-04-24 22:00 | 30.47320 | -87.19533 | 129 ft | 6 kts | 349° |
| 2026-04-24 22:00 | 30.47366 | -87.19535 | 135 ft | 6 kts | 22° |
| 2026-04-24 22:01 | 30.47376 | -87.19497 | 135 ft | 6 kts | 92° |
| 2026-04-24 22:01 | 30.47388 | -87.19457 | 135 ft | 4 kts | 34° |
| 2026-04-24 22:01 | 30.47404 | -87.19463 | 135 ft | 3 kts | 330° |
| 2026-04-24 22:01 | 30.47413 | -87.19498 | 131 ft | 3 kts | 263° |
| 2026-04-24 22:02 | 30.47412 | -87.19502 | 135 ft | 0 kts | 257° |